Time;durP1;ratioP1;P1;durP2;ratioP2;P2;SDS_P1;SDS_P2;PMS_P1;PMS_P2;Temp;Humidity;BMP_temperature;BMP_pressure;BME280_temperature;BME280_humidity;BME280_pressure;Samples;Min_cycle;Max_cycle;Signal;HPM_P1;HPM_P2
2022/06/17 01:13:00;;;;;;;15.73;13.38;;;14.00;99.90;;;;;;6134010;28;19926;-70
2022/06/17 01:16:04;;;;;;;15.45;13.52;;;14.10;99.90;;;;;;6093658;29;20524;-70
2022/06/17 01:19:13;;;;;;;15.60;13.93;;;14.10;99.90;;;;;;6098900;29;20048;-69
2022/06/17 01:22:27;;;;;;;14.65;13.07;;;14.10;99.90;;;;;;6084201;29;20064;-69
2022/06/17 01:25:33;;;;;;;15.98;14.48;;;14.10;99.90;;;;;;6100826;29;20083;-70
2022/06/17 01:28:35;;;;;;;17.55;15.70;;;14.10;99.90;;;;;;6074917;29;20053;-70
2022/06/17 01:31:37;;;;;;;17.88;15.68;;;14.00;99.90;;;;;;6083910;29;20059;-69
2022/06/17 01:34:40;;;;;;;16.63;14.93;;;14.00;99.90;;;;;;6131984;28;20051;-69
2022/06/17 01:37:42;;;;;;;18.08;15.25;;;14.00;99.90;;;;;;6147514;29;20386;-69
2022/06/17 01:40:46;;;;;;;19.33;15.35;;;14.00;99.90;;;;;;6149878;29;20059;-70
2022/06/17 01:43:52;;;;;;;17.10;14.52;;;14.00;99.90;;;;;;6146828;28;20055;-70
2022/06/17 01:46:57;;;;;;;16.92;15.15;;;14.10;99.90;;;;;;6147288;28;20107;-70
2022/06/17 01:50:02;;;;;;;16.73;13.40;;;14.10;99.90;;;;;;6150576;28;20098;-70
2022/06/17 01:53:08;;;;;;;15.40;13.80;;;14.00;99.90;;;;;;6145250;28;20449;-69
2022/06/17 01:56:14;;;;;;;16.58;14.63;;;14.10;99.90;;;;;;6149382;28;20081;-69
2022/06/17 01:59:25;;;;;;;17.77;15.15;;;14.10;99.90;;;;;;6149404;28;20063;-69
2022/06/17 02:02:28;;;;;;;17.33;15.20;;;14.00;99.90;;;;;;6135612;29;20855;-69
2022/06/17 02:05:33;;;;;;;16.60;14.10;;;14.00;99.90;;;;;;6126941;29;20408;-69
2022/06/17 02:08:36;;;;;;;17.33;12.98;;;14.00;99.90;;;;;;6155978;28;20500;-69
2022/06/17 02:11:39;;;;;;;21.67;16.65;;;13.90;99.90;;;;;;6148534;29;20062;-69
2022/06/17 02:14:41;;;;;;;;;;;14.00;99.90;;;;;;6150610;29;20138;-69
2022/06/17 02:17:45;;;;;;;17.30;15.55;;;13.90;99.90;;;;;;6145711;29;19923;-69
2022/06/17 02:20:51;;;;;;;18.10;16.00;;;14.00;99.90;;;;;;6147417;28;20083;-69
2022/06/17 02:23:54;;;;;;;18.77;16.75;;;13.90;99.90;;;;;;6146876;29;20058;-69
2022/06/17 02:27:00;;;;;;;17.52;15.55;;;13.90;99.90;;;;;;6149317;28;20036;-69
2022/06/17 02:30:04;;;;;;;16.52;14.40;;;13.90;99.90;;;;;;6149069;28;20051;-69
2022/06/17 02:33:06;;;;;;;;;;;13.80;99.90;;;;;;6146329;28;20054;-68
2022/06/17 02:36:14;;;;;;;20.08;15.98;;;13.90;99.90;;;;;;6147381;29;19978;-69
2022/06/17 02:39:17;;;;;;;17.02;15.23;;;13.90;99.90;;;;;;6147368;29;20063;-70
2022/06/17 02:42:23;;;;;;;17.50;15.68;;;13.90;99.90;;;;;;6146305;29;20046;-69
2022/06/17 02:45:27;;;;;;;14.77;12.98;;;13.90;99.90;;;;;;6149971;28;20043;-70
2022/06/17 02:48:34;;;;;;;17.67;14.73;;;13.90;99.90;;;;;;6147559;28;20047;-69
2022/06/17 02:51:40;;;;;;;17.13;14.07;;;13.90;99.90;;;;;;6149391;28;20102;-70
2022/06/17 02:54:45;;;;;;;15.85;14.15;;;14.00;99.90;;;;;;6146237;29;20044;-69
2022/06/17 02:57:49;;;;;;;13.27;11.82;;;14.00;99.90;;;;;;6150104;28;20062;-70
2022/06/17 03:00:52;;;;;;;15.88;13.80;;;14.00;99.90;;;;;;6151087;29;20190;-69
2022/06/17 03:03:55;;;;;;;16.38;13.65;;;14.00;99.90;;;;;;6137094;29;20047;-69
2022/06/17 03:06:58;;;;;;;14.93;13.40;;;14.00;99.90;;;;;;6151320;29;20653;-70
2022/06/17 03:10:00;;;;;;;16.90;13.47;;;14.00;99.90;;;;;;6143772;28;20059;-69
2022/06/17 03:13:09;;;;;;;16.90;13.95;;;14.00;99.90;;;;;;6130250;29;20203;-69
2022/06/17 03:16:14;;;;;;;16.65;13.43;;;13.90;99.90;;;;;;6148798;28;20047;-69
2022/06/17 03:19:16;;;;;;;16.25;13.70;;;13.90;99.90;;;;;;6153045;28;20500;-69
2022/06/17 03:22:17;;;;;;;14.18;8.85;;;13.90;99.90;;;;;;6152180;28;20410;-69
2022/06/17 03:25:25;;;;;;;14.40;11.43;;;13.90;99.90;;;;;;6142944;28;20098;-69
2022/06/17 03:28:31;;;;;;;14.25;12.77;;;13.90;99.90;;;;;;6147924;28;20199;-69
2022/06/17 03:31:37;;;;;;;15.63;14.02;;;13.90;99.90;;;;;;6140304;29;20043;-70
2022/06/17 03:34:46;;;;;;;16.02;12.75;;;13.90;99.90;;;;;;6152522;28;20131;-70
2022/06/17 03:37:54;;;;;;;16.20;12.98;;;13.90;99.90;;;;;;6152494;28;20511;-70
2022/06/17 03:41:01;;;;;;;12.10;10.05;;;13.90;99.90;;;;;;6152596;29;20405;-70
2022/06/17 03:44:10;;;;;;;18.00;12.63;;;13.90;99.90;;;;;;6143325;28;20055;-70
2022/06/17 03:47:17;;;;;;;17.67;12.73;;;13.90;99.90;;;;;;6129563;29;20067;-69
2022/06/17 03:50:24;;;;;;;16.45;11.60;;;13.90;99.90;;;;;;6148971;29;20401;-70
2022/06/17 03:53:28;;;;;;;17.83;12.95;;;14.00;99.90;;;;;;6149907;28;20051;-70
2022/06/17 03:56:33;;;;;;;16.65;12.52;;;14.00;99.90;;;;;;6149175;28;20070;-70
2022/06/17 03:59:39;;;;;;;16.25;12.95;;;14.10;99.90;;;;;;6149735;28;20051;-70
2022/06/17 04:02:41;;;;;;;15.25;10.80;;;14.10;99.90;;;;;;6148835;29;20058;-70
2022/06/17 04:05:45;;;;;;;9.57;8.38;;;14.20;99.90;;;;;;6147344;29;20074;-70
2022/06/17 04:08:55;;;;;;;12.70;11.40;;;14.30;99.90;;;;;;6152379;28;20492;-70
2022/06/17 04:12:01;;;;;;;14.55;11.75;;;14.40;99.90;;;;;;6149269;29;20532;-70
2022/06/17 04:15:15;;;;;;;13.27;8.50;;;14.40;99.90;;;;;;6148711;28;20062;-70
2022/06/17 04:18:17;;;;;;;13.35;10.27;;;14.50;99.90;;;;;;6141337;29;20063;-70
2022/06/17 04:21:19;;;;;;;12.98;10.60;;;14.50;99.90;;;;;;6138216;29;20052;-70
2022/06/17 04:24:24;;;;;;;13.90;11.82;;;14.60;99.90;;;;;;6149823;28;20059;-70
2022/06/17 04:27:56;;;;;;;15.45;11.60;;;14.70;99.90;;;;;;6151335;29;20070;-69
2022/06/17 04:30:55;;;;;;;11.17;9.47;;;14.80;99.90;;;;;;6150125;29;20043;-69
2022/06/17 04:34:04;;;;;;;16.13;12.57;;;14.80;99.90;;;;;;6149707;29;20833;-70
2022/06/17 04:37:12;;;;;;;11.38;8.40;;;14.90;99.90;;;;;;6128767;29;20047;-70
2022/06/17 04:40:26;;;;;;;15.55;11.15;;;15.00;99.90;;;;;;6147118;29;20655;-70
2022/06/17 04:43:35;;;;;;;11.02;6.97;;;15.20;99.90;;;;;;6149469;29;20054;-70
2022/06/17 04:46:42;;;;;;;7.93;5.50;;;15.40;99.90;;;;;;6150521;29;20057;-70
2022/06/17 04:49:47;;;;;;;12.55;11.25;;;15.60;99.90;;;;;;6146198;28;20385;-70
2022/06/17 04:52:51;;;;;;;13.40;9.40;;;15.70;99.90;;;;;;6135867;29;20048;-70
2022/06/17 04:55:54;;;;;;;11.85;9.43;;;15.80;99.90;;;;;;6149165;29;20663;-70
2022/06/17 04:58:57;;;;;;;12.45;11.20;;;15.90;99.90;;;;;;6147835;28;20055;-70
2022/06/17 05:02:02;;;;;;;12.47;9.83;;;15.90;99.90;;;;;;6136643;29;20416;-70
2022/06/17 05:05:09;;;;;;;13.60;10.35;;;15.80;99.90;;;;;;6141035;29;20059;-70
2022/06/17 05:08:17;;;;;;;13.30;11.20;;;15.90;99.90;;;;;;6149273;29;20134;-70
2022/06/17 05:11:26;;;;;;;15.65;11.82;;;16.00;99.90;;;;;;6127602;29;20059;-70
2022/06/17 05:14:39;;;;;;;11.93;8.95;;;16.00;99.90;;;;;;6136888;29;20054;-70
2022/06/17 05:17:42;;;;;;;13.93;10.90;;;16.00;99.90;;;;;;6151147;28;20055;-70
2022/06/17 05:20:45;;;;;;;12.50;9.25;;;16.00;99.90;;;;;;6149397;28;20054;-71
2022/06/17 05:23:49;;;;;;;9.48;7.53;;;16.00;99.90;;;;;;6149784;28;20138;-70
2022/06/17 05:26:52;;;;;;;10.25;7.18;;;16.00;99.90;;;;;;6135831;29;20569;-70
2022/06/17 05:29:54;;;;;;;7.37;5.77;;;16.10;99.90;;;;;;6137565;29;20525;-70
2022/06/17 05:32:57;;;;;;;13.57;10.45;;;16.10;99.90;;;;;;6137449;29;21065;-70
2022/06/17 05:35:59;;;;;;;15.35;11.18;;;16.20;99.90;;;;;;6138758;29;20051;-70
2022/06/17 05:39:01;;;;;;;15.43;11.65;;;16.20;99.90;;;;;;6139466;28;21129;-70
2022/06/17 05:42:05;;;;;;;11.30;9.43;;;16.20;99.90;;;;;;6138271;29;20113;-70
2022/06/17 05:45:09;;;;;;;10.45;8.00;;;16.20;99.90;;;;;;6140130;28;20048;-70
2022/06/17 05:48:12;;;;;;;12.55;11.00;;;16.30;99.90;;;;;;6138127;28;20098;-70
2022/06/17 05:51:14;;;;;;;7.70;6.05;;;16.30;99.90;;;;;;6138139;28;20043;-70
2022/06/17 05:54:16;;;;;;;8.43;4.40;;;16.40;99.90;;;;;;6152819;28;20066;-70
2022/06/17 05:57:18;;;;;;;13.98;10.40;;;16.60;99.90;;;;;;6138293;29;20803;-70
2022/06/17 06:00:21;;;;;;;8.05;5.75;;;16.80;99.90;;;;;;6136374;28;20051;-70
2022/06/17 06:03:26;;;;;;;11.23;8.10;;;17.00;99.90;;;;;;6137674;28;20066;-67
2022/06/17 06:06:28;;;;;;;17.75;8.23;;;17.10;99.90;;;;;;6144630;28;20043;-78
2022/06/17 06:09:30;;;;;;;29.85;12.45;;;17.20;99.90;;;;;;6146081;28;20058;-69
2022/06/17 06:15:50;;;;;;;11.68;9.63;;;17.50;99.90;;;;;;6139656;28;20078;-68
2022/06/17 06:18:53;;;;;;;9.63;6.47;;;17.80;99.90;;;;;;6146291;28;20091;-68
2022/06/17 06:21:55;;;;;;;9.70;6.40;;;18.10;99.90;;;;;;6145398;28;20059;-67
2022/06/17 06:24:57;;;;;;;11.40;7.30;;;18.40;99.90;;;;;;6130232;28;20106;-67
2022/06/17 06:27:59;;;;;;;13.50;9.73;;;18.60;99.90;;;;;;6146988;28;20504;-67
2022/06/17 06:31:04;;;;;;;8.82;6.30;;;18.70;99.90;;;;;;6148187;28;20062;-67
2022/06/17 06:34:10;;;;;;;10.38;5.85;;;18.70;99.90;;;;;;6146274;28;20043;-66
2022/06/17 06:37:13;;;;;;;12.00;7.03;;;18.80;99.90;;;;;;6147483;28;20377;-67
2022/06/17 06:40:15;;;;;;;13.02;9.43;;;18.90;99.90;;;;;;6149632;28;20058;-67
2022/06/17 06:43:20;;;;;;;10.43;8.95;;;18.90;99.90;;;;;;6147519;28;20051;-67
2022/06/17 06:46:24;;;;;;;13.85;8.55;;;18.90;99.90;;;;;;6152733;28;20516;-67
2022/06/17 06:49:27;;;;;;;12.73;8.18;;;19.00;99.90;;;;;;6145358;28;20047;-67
2022/06/17 06:52:29;;;;;;;10.60;8.57;;;19.10;99.90;;;;;;6129458;29;20056;-67
2022/06/17 06:55:31;;;;;;;17.17;9.93;;;19.00;99.90;;;;;;6128144;29;20078;-67
2022/06/17 06:58:33;;;;;;;6.72;4.85;;;19.10;99.90;;;;;;6148319;28;20527;-66
2022/06/17 07:01:35;;;;;;;12.98;8.68;;;19.10;99.90;;;;;;6145285;28;20082;-66
2022/06/17 07:04:39;;;;;;;11.50;8.40;;;19.30;99.90;;;;;;6146572;28;20078;-67
2022/06/17 07:07:42;;;;;;;8.25;7.25;;;19.40;99.90;;;;;;6145108;28;20122;-66
2022/06/17 07:10:45;;;;;;;7.93;7.18;;;19.30;99.90;;;;;;6146529;28;20054;-67
2022/06/17 07:13:47;;;;;;;12.88;10.00;;;19.20;99.90;;;;;;6149069;28;20146;-67
2022/06/17 07:16:50;;;;;;;6.43;5.18;;;19.20;99.90;;;;;;6145411;29;20047;-67
2022/06/17 07:19:53;;;;;;;10.07;7.63;;;19.20;99.90;;;;;;6148005;28;20047;-66
2022/06/17 07:22:55;;;;;;;11.63;8.48;;;19.40;99.90;;;;;;6126759;29;20514;-67
2022/06/17 07:25:58;;;;;;;11.13;9.52;;;19.50;99.90;;;;;;6133024;28;20058;-67
2022/06/17 07:29:00;;;;;;;7.00;5.10;;;19.50;99.90;;;;;;6144711;29;20481;-67
2022/06/17 07:32:02;;;;;;;12.88;9.48;;;19.60;99.90;;;;;;6145987;28;20412;-67
2022/06/17 07:35:06;;;;;;;8.10;5.15;;;19.80;99.90;;;;;;6147562;29;20057;-67
2022/06/17 07:41:33;;;;;;;10.60;7.50;;;20.00;99.90;;;;;;6146980;28;20047;-66
2022/06/17 07:44:35;;;;;;;9.43;7.07;;;20.00;99.90;;;;;;6150678;28;20412;-67
2022/06/17 07:47:37;;;;;;;8.73;5.18;;;20.10;99.90;;;;;;6152063;28;20047;-66
2022/06/17 07:50:43;;;;;;;10.10;7.03;;;20.10;99.90;;;;;;6151330;28;20059;-66
2022/06/17 07:53:45;;;;;;;8.50;6.32;;;20.10;99.90;;;;;;6146848;29;20063;-67
2022/06/17 07:56:47;;;;;;;12.00;7.80;;;20.20;99.90;;;;;;6148882;29;20160;-66
2022/06/17 07:59:49;;;;;;;8.20;6.55;;;20.30;99.90;;;;;;6137447;29;20094;-67
2022/06/17 08:02:51;;;;;;;8.55;5.07;;;20.40;99.90;;;;;;6142207;29;20070;-67
2022/06/17 08:05:58;;;;;;;12.52;5.43;;;20.60;99.90;;;;;;6139979;29;20539;-67
2022/06/17 08:09:00;;;;;;;6.22;4.50;;;20.70;99.90;;;;;;6152831;28;20055;-68
2022/06/17 08:12:03;;;;;;;5.97;4.30;;;20.70;99.90;;;;;;6152810;28;20055;-67
2022/06/17 08:15:06;;;;;;;8.82;5.53;;;20.80;99.90;;;;;;6147737;28;20270;-68
2022/06/17 08:18:08;;;;;;;11.07;4.95;;;21.00;99.90;;;;;;6147604;29;20054;-67
2022/06/17 08:21:12;;;;;;;7.28;5.50;;;21.20;99.90;;;;;;6152397;28;20043;-67
2022/06/17 08:24:14;;;;;;;7.78;5.35;;;21.30;99.90;;;;;;6150068;28;20051;-68
2022/06/17 08:27:16;;;;;;;8.05;5.88;;;21.40;99.90;;;;;;6150596;29;20385;-68
2022/06/17 08:30:20;;;;;;;7.88;6.47;;;21.50;99.90;;;;;;6151001;29;20052;-67
2022/06/17 08:33:27;;;;;;;7.78;3.80;;;21.60;99.90;;;;;;6151040;28;20171;-67
2022/06/17 08:36:30;;;;;;;8.02;5.18;;;21.80;99.90;;;;;;6150791;28;20051;-68
2022/06/17 08:39:34;;;;;;;11.13;5.95;;;22.00;99.90;;;;;;6150468;29;20061;-67
2022/06/17 08:42:49;;;;;;;9.25;4.18;;;22.00;99.90;;;;;;6148452;28;20417;-67
2022/06/17 08:46:02;;;;;;;7.50;5.32;;;21.90;99.90;;;;;;6151400;28;20054;-67
2022/06/17 08:49:21;;;;;;;6.07;4.50;;;21.90;99.90;;;;;;6146684;28;20054;-67
2022/06/17 08:52:45;;;;;;;6.63;4.30;;;22.00;99.90;;;;;;6132758;28;20047;-67
2022/06/17 08:55:55;;;;;;;7.57;4.30;;;22.10;99.90;;;;;;6144950;28;20087;-67
2022/06/17 08:59:18;;;;;;;7.88;4.63;;;22.20;99.90;;;;;;6147974;28;20487;-67
2022/06/17 09:02:30;;;;;;;6.97;5.35;;;22.20;99.90;;;;;;6151939;28;20058;-68
2022/06/17 09:05:44;;;;;;;7.43;4.70;;;22.30;99.90;;;;;;6150465;28;20048;-68
2022/06/17 09:09:05;;;;;;;6.30;3.90;;;22.30;99.90;;;;;;6135038;28;20058;-67
2022/06/17 09:12:15;;;;;;;5.13;3.95;;;22.40;99.90;;;;;;6150977;28;20057;-67
2022/06/17 09:15:25;;;;;;;6.63;4.60;;;22.50;99.90;;;;;;6151440;28;20051;-68
2022/06/17 09:18:30;;;;;;;9.55;4.90;;;22.60;99.90;;;;;;6149365;29;20086;-68
2022/06/17 09:21:37;;;;;;;8.30;4.53;;;22.70;99.90;;;;;;6150225;29;20671;-68
2022/06/17 09:24:42;;;;;;;5.47;3.95;;;22.70;99.90;;;;;;6136329;29;20052;-68
2022/06/17 09:27:47;;;;;;;8.65;4.60;;;22.70;99.90;;;;;;6132360;29;20047;-68
2022/06/17 09:30:58;;;;;;;7.25;3.30;;;22.70;99.90;;;;;;6149785;29;20486;-67
2022/06/17 09:34:05;;;;;;;5.88;3.50;;;22.70;99.90;;;;;;6147840;29;20138;-67
2022/06/17 09:37:14;;;;;;;4.28;3.00;;;22.70;99.90;;;;;;6148610;29;20039;-67
2022/06/17 09:40:26;;;;;;;5.60;4.10;;;22.70;99.90;;;;;;6147670;28;20126;-67
2022/06/17 09:43:33;;;;;;;5.43;4.00;;;22.70;99.90;;;;;;6150566;28;20047;-67
2022/06/17 09:46:41;;;;;;;4.90;2.75;;;22.70;99.90;;;;;;6149945;28;20649;-67
2022/06/17 09:49:48;;;;;;;6.15;5.05;;;22.70;99.90;;;;;;6149268;29;20091;-68
2022/06/17 09:52:55;;;;;;;6.35;4.63;;;22.80;99.90;;;;;;6147459;29;20074;-68
2022/06/17 09:56:05;;;;;;;4.82;4.03;;;22.80;99.90;;;;;;6149472;28;20078;-67
2022/06/17 09:59:16;;;;;;;7.00;5.03;;;22.90;99.90;;;;;;6141299;29;20051;-69
2022/06/17 10:02:24;;;;;;;7.82;4.10;;;22.80;99.90;;;;;;6147819;29;20186;-68
2022/06/17 10:05:36;;;;;;;5.70;3.78;;;22.80;99.90;;;;;;6146267;28;20106;-67
2022/06/17 10:08:48;;;;;;;8.88;4.22;;;23.00;99.90;;;;;;6143062;29;20452;-72
2022/06/17 10:12:00;;;;;;;5.40;3.70;;;23.10;99.90;;;;;;6148818;28;20119;-70
2022/06/17 10:15:26;;;;;;;6.00;3.55;;;23.30;99.90;;;;;;6132815;29;20050;-70
2022/06/17 10:18:37;;;;;;;4.88;4.15;;;23.40;99.90;;;;;;6146680;28;20051;-70
2022/06/17 10:21:53;;;;;;;6.57;4.93;;;23.50;99.90;;;;;;6143125;28;20062;-69
2022/06/17 10:25:07;;;;;;;5.38;3.75;;;23.50;99.90;;;;;;6135706;28;20051;-69
2022/06/17 10:28:25;;;;;;;5.22;3.65;;;23.50;99.90;;;;;;6140341;28;20632;-68
2022/06/17 10:31:35;;;;;;;4.82;3.10;;;23.40;99.90;;;;;;6138103;28;20058;-70
2022/06/17 10:34:43;;;;;;;5.85;3.72;;;23.40;99.90;;;;;;6135765;28;20047;-70
2022/06/17 10:37:45;;;;;;;6.80;3.10;;;23.40;99.90;;;;;;6142510;28;20051;-67
2022/06/17 10:40:47;;;;;;;4.32;3.33;;;23.30;99.90;;;;;;6147439;28;20930;-68
2022/06/17 10:43:53;;;;;;;4.72;2.85;;;23.30;99.90;;;;;;6146437;28;20728;-68
2022/06/17 10:47:00;;;;;;;4.45;2.95;;;23.30;99.90;;;;;;6128294;29;20055;-68
2022/06/17 10:50:06;;;;;;;3.20;2.90;;;23.30;99.90;;;;;;6137508;29;20138;-69
2022/06/17 10:53:15;;;;;;;4.68;3.40;;;23.30;99.90;;;;;;6137236;28;20591;-69
2022/06/17 10:56:22;;;;;;;4.30;3.20;;;23.30;99.90;;;;;;6134659;28;20039;-70
2022/06/17 10:59:33;;;;;;;5.40;3.15;;;23.30;99.90;;;;;;6137084;28;20051;-70
2022/06/17 11:02:35;;;;;;;7.80;3.40;;;23.30;99.90;;;;;;6141198;28;20077;-70
2022/06/17 11:05:38;;;;;;;6.13;2.83;;;23.30;99.90;;;;;;6136544;28;20058;-70
2022/06/17 11:08:42;;;;;;;4.03;3.30;;;23.30;99.90;;;;;;6138040;28;20404;-73
2022/06/17 11:12:04;;;;;;;4.40;2.83;;;23.20;99.90;;;;;;6135598;28;20781;-69
2022/06/17 11:15:21;;;;;;;4.25;3.20;;;23.20;99.90;;;;;;6132953;28;20492;-69
2022/06/17 11:18:28;;;;;;;4.75;2.97;;;23.30;99.90;;;;;;6137430;28;20039;-70
2022/06/17 11:21:35;;;;;;;5.13;3.63;;;23.30;99.90;;;;;;6139618;28;20063;-69
2022/06/17 11:24:41;;;;;;;5.63;3.10;;;23.40;99.90;;;;;;6138653;28;20047;-69
2022/06/17 11:27:51;;;;;;;3.97;3.00;;;23.60;99.90;;;;;;6141026;28;20043;-70
2022/06/17 11:30:57;;;;;;;7.03;4.60;;;23.80;99.90;;;;;;6139385;28;20055;-69
2022/06/17 11:34:00;;;;;;;4.72;2.92;;;23.90;99.90;;;;;;6138931;28;20055;-69
2022/06/17 11:37:19;;;;;;;6.28;3.95;;;24.00;99.90;;;;;;6140133;28;20047;-69
2022/06/17 11:40:23;;;;;;;5.22;2.88;;;24.00;99.90;;;;;;6141689;28;20190;-69
2022/06/17 11:43:31;;;;;;;4.93;3.50;;;24.10;99.90;;;;;;6143212;28;20043;-68
2022/06/17 11:46:35;;;;;;;5.18;3.88;;;24.10;99.90;;;;;;6146957;29;20051;-69
2022/06/17 11:49:39;;;;;;;4.95;2.83;;;24.20;99.90;;;;;;6142486;29;20078;-69
2022/06/17 11:52:42;;;;;;;6.90;4.40;;;24.30;99.90;;;;;;6140703;28;20047;-70
2022/06/17 11:55:47;;;;;;;7.25;3.00;;;24.30;99.50;;;;;;6138877;28;20461;-70
2022/06/17 11:58:55;;;;;;;7.20;3.20;;;24.40;99.90;;;;;;6142725;28;20044;-70
2022/06/17 12:02:07;;;;;;;9.55;3.00;;;24.40;99.60;;;;;;6149285;29;20128;-69
2022/06/17 12:05:22;;;;;;;6.70;3.65;;;24.40;99.70;;;;;;6148122;28;20044;-71
2022/06/17 12:08:28;;;;;;;10.90;3.97;;;24.40;99.20;;;;;;6150147;28;20061;-71
2022/06/17 12:11:39;;;;;;;9.13;2.97;;;24.50;98.90;;;;;;6165222;28;20052;-69
2022/06/17 12:14:50;;;;;;;7.60;3.50;;;24.50;99.20;;;;;;6152263;28;20047;-69
2022/06/17 12:17:57;;;;;;;4.28;3.03;;;24.60;99.00;;;;;;6176880;28;20129;-70
2022/06/17 12:21:29;;;;;;;15.02;3.25;;;24.60;99.30;;;;;;6147332;28;20051;-68
2022/06/17 12:24:40;;;;;;;3.92;3.33;;;24.60;99.20;;;;;;6138884;28;20051;-68
2022/06/17 12:27:48;;;;;;;7.65;4.53;;;24.60;99.20;;;;;;6140545;29;20138;-69
2022/06/17 12:31:01;;;;;;;4.88;3.15;;;24.60;98.40;;;;;;6139021;28;20059;-71
2022/06/17 12:34:13;;;;;;;8.30;4.15;;;24.80;98.70;;;;;;6134592;28;20149;-69
2022/06/17 12:37:29;;;;;;;5.93;3.40;;;24.90;98.40;;;;;;6137903;29;20059;-69
2022/06/17 12:40:38;;;;;;;7.30;4.45;;;25.00;98.30;;;;;;6143940;28;20051;-69
2022/06/17 12:43:48;;;;;;;7.72;3.08;;;25.10;97.80;;;;;;6150063;28;20043;-68
2022/06/17 12:47:00;;;;;;;5.25;3.28;;;25.10;98.10;;;;;;6129540;29;20050;-68
2022/06/17 12:53:46;;;;;;;5.55;3.38;;;25.00;98.20;;;;;;6128291;29;20048;-68
2022/06/17 12:56:55;;;;;;;6.07;3.95;;;25.10;98.00;;;;;;6128170;29;20402;-68
2022/06/17 13:00:06;;;;;;;7.13;3.05;;;25.20;97.80;;;;;;6128376;29;20048;-68
2022/06/17 13:03:27;;;;;;;6.13;3.65;;;25.20;97.80;;;;;;6128159;29;20055;-68
2022/06/17 13:06:40;;;;;;;7.75;3.75;;;25.20;97.70;;;;;;6127240;29;20191;-68
2022/06/17 13:09:57;;;;;;;7.28;3.88;;;25.30;97.40;;;;;;6127680;29;20055;-68
2022/06/17 13:13:08;;;;;;;8.15;4.60;;;25.40;97.40;;;;;;6127444;29;20505;-68
2022/06/17 13:16:15;;;;;;;3.45;2.80;;;25.40;97.00;;;;;;6135293;29;20054;-68
2022/06/17 13:19:26;;;;;;;5.95;3.30;;;25.40;97.30;;;;;;6151299;29;20073;-68
2022/06/17 13:22:35;;;;;;;8.95;4.68;;;25.30;97.20;;;;;;6139863;28;20062;-68
2022/06/17 13:25:42;;;;;;;7.65;4.10;;;25.20;97.10;;;;;;6128066;29;20051;-68
2022/06/17 13:28:54;;;;;;;4.30;2.50;;;25.10;97.30;;;;;;6127583;29;20044;-68
2022/06/17 13:32:01;;;;;;;3.67;2.75;;;25.00;97.50;;;;;;6127568;29;20056;-69
2022/06/17 13:35:07;;;;;;;8.30;4.72;;;25.00;97.70;;;;;;6127495;29;20055;-68
2022/06/17 13:38:16;;;;;;;8.68;4.22;;;24.90;97.50;;;;;;6128573;29;20051;-68
2022/06/17 13:41:29;;;;;;;6.78;3.72;;;24.80;97.40;;;;;;6141508;28;20066;-68
2022/06/17 13:44:45;;;;;;;4.20;2.97;;;24.80;97.70;;;;;;6150645;28;20078;-68
2022/06/17 13:47:57;;;;;;;3.38;2.65;;;24.70;97.70;;;;;;6150773;28;20054;-68
2022/06/17 13:51:12;;;;;;;5.18;3.10;;;24.60;97.90;;;;;;6150962;28;20075;-68
2022/06/17 13:54:28;;;;;;;5.00;2.67;;;24.60;98.10;;;;;;6150841;28;20051;-68
2022/06/17 13:57:38;;;;;;;6.30;2.75;;;24.50;98.10;;;;;;6130644;28;20048;-68
2022/06/17 14:00:43;;;;;;;4.13;2.72;;;24.50;98.30;;;;;;6127170;29;20055;-68
2022/06/17 14:04:14;;;;;;;5.68;3.03;;;24.50;98.30;;;;;;6126818;29;20059;-68
2022/06/17 14:07:16;;;;;;;5.53;3.05;;;24.50;98.30;;;;;;6125474;29;20048;-68
2022/06/17 14:10:40;;;;;;;7.28;3.33;;;24.40;98.00;;;;;;6125717;29;20190;-68
2022/06/17 14:13:42;;;;;;;3.42;2.50;;;24.50;98.00;;;;;;6126945;29;20196;-68
2022/06/17 14:16:45;;;;;;;6.45;2.70;;;24.60;98.00;;;;;;6126097;29;20524;-68
2022/06/17 14:19:51;;;;;;;5.15;2.78;;;24.80;98.00;;;;;;6146737;29;20059;-68
2022/06/17 14:23:03;;;;;;;2.40;2.13;;;24.90;97.70;;;;;;6150625;28;20076;-68
2022/06/17 14:26:06;;;;;;;4.20;3.00;;;25.00;97.70;;;;;;6148730;29;20043;-68
2022/06/17 14:29:14;;;;;;;3.65;2.40;;;25.10;97.40;;;;;;6148874;28;20047;-68
2022/06/17 14:32:38;;;;;;;3.78;2.47;;;25.30;97.30;;;;;;6125327;29;20780;-68
2022/06/17 14:35:49;;;;;;;3.53;2.38;;;25.50;97.20;;;;;;6125588;29;20488;-68
2022/06/17 14:38:58;;;;;;;5.60;2.60;;;25.70;97.00;;;;;;6124837;29;20433;-68
2022/06/17 14:42:08;;;;;;;2.72;2.42;;;25.70;96.70;;;;;;6147547;29;20051;-68
2022/06/17 14:45:28;;;;;;;7.18;3.00;;;25.60;96.70;;;;;;6140639;29;20047;-68
2022/06/17 14:48:40;;;;;;;4.85;2.90;;;25.50;96.50;;;;;;6126948;28;20075;-68
2022/06/17 14:51:43;;;;;;;4.97;2.97;;;25.40;96.40;;;;;;6124963;29;20106;-68
2022/06/17 14:54:45;;;;;;;;;;;25.50;96.50;;;;;;6126119;29;20059;-68
2022/06/17 14:58:15;;;;;;;3.05;2.42;;;25.60;96.50;;;;;;6125030;29;19950;-68
2022/06/17 15:01:34;;;;;;;7.43;2.67;;;25.60;96.30;;;;;;6128547;29;20423;-68
2022/06/17 15:04:40;;;;;;;3.10;2.65;;;25.50;96.10;;;;;;6136956;28;20054;-68
2022/06/17 15:07:48;;;;;;;3.53;2.40;;;25.40;96.30;;;;;;6126099;29;20048;-68
2022/06/17 15:10:59;;;;;;;3.33;2.35;;;25.40;96.40;;;;;;6124914;29;20060;-68
2022/06/17 15:14:12;;;;;;;5.63;2.60;;;25.40;96.50;;;;;;6124731;29;20048;-68
2022/06/17 15:17:19;;;;;;;4.97;2.25;;;25.30;96.20;;;;;;6124800;29;20416;-68
2022/06/17 15:20:24;;;;;;;3.92;2.80;;;25.20;96.50;;;;;;6145433;29;20052;-68
2022/06/17 15:23:38;;;;;;;5.80;3.20;;;25.20;96.40;;;;;;6140201;29;20056;-68
2022/06/17 15:26:48;;;;;;;5.50;2.30;;;25.20;96.50;;;;;;6125568;29;20195;-68
2022/06/17 15:30:04;;;;;;;2.97;2.17;;;25.20;96.60;;;;;;6125838;29;20059;-68
2022/06/17 15:33:15;;;;;;;3.78;2.40;;;25.20;96.60;;;;;;6125307;29;20497;-68
2022/06/17 15:36:24;;;;;;;4.72;2.13;;;25.20;96.60;;;;;;6078974;29;20441;-68
2022/06/17 15:39:42;;;;;;;3.17;2.50;;;25.30;96.60;;;;;;6127019;29;20051;-68
2022/06/17 15:42:57;;;;;;;5.03;2.70;;;25.20;96.60;;;;;;6147829;29;20059;-68
2022/06/17 15:46:12;;;;;;;2.67;2.20;;;25.20;96.50;;;;;;6149388;28;20051;-68
2022/06/17 15:49:17;;;;;;;2.83;2.05;;;25.20;96.60;;;;;;6148929;28;20086;-67
2022/06/17 15:52:22;;;;;;;4.20;2.55;;;25.10;96.60;;;;;;6148865;28;20062;-68
2022/06/17 15:55:26;;;;;;;4.30;2.40;;;25.00;96.60;;;;;;6148386;28;20058;-67
2022/06/17 15:58:32;;;;;;;4.28;2.50;;;25.00;96.60;;;;;;6148005;29;20206;-68
2022/06/17 16:01:38;;;;;;;5.78;2.38;;;25.00;96.90;;;;;;6148858;28;20062;-68
2022/06/17 16:04:40;;;;;;;2.83;2.00;;;25.00;96.90;;;;;;6148259;28;20059;-68
2022/06/17 16:07:50;;;;;;;4.32;2.65;;;25.10;96.90;;;;;;6152179;29;20531;-68
2022/06/17 16:11:09;;;;;;;3.30;2.08;;;25.00;96.90;;;;;;6152025;29;20059;-68
2022/06/17 16:14:27;;;;;;;4.60;2.50;;;25.00;97.00;;;;;;6151763;29;20130;-68
2022/06/17 16:17:33;;;;;;;5.15;2.47;;;25.00;97.20;;;;;;6151527;29;20055;-68
2022/06/17 16:20:38;;;;;;;4.95;2.22;;;25.00;97.10;;;;;;6152714;29;20066;-68
2022/06/17 16:23:41;;;;;;;4.63;2.40;;;25.00;97.20;;;;;;6151777;29;20111;-68
2022/06/17 16:26:45;;;;;;;4.63;2.63;;;25.00;97.20;;;;;;6152948;28;20135;-68
2022/06/17 16:29:56;;;;;;;5.38;2.53;;;25.00;97.50;;;;;;6137334;29;20051;-68
2022/06/17 16:33:04;;;;;;;5.57;3.40;;;25.00;97.50;;;;;;6127589;29;20051;-68
2022/06/17 16:36:08;;;;;;;3.13;2.30;;;25.00;97.50;;;;;;6127583;29;20095;-68
2022/06/17 16:39:28;;;;;;;5.13;3.00;;;25.00;97.60;;;;;;6127663;29;20529;-68
2022/06/17 16:46:04;;;;;;;3.33;2.42;;;25.00;97.80;;;;;;6150385;28;20055;-68
2022/06/17 16:49:07;;;;;;;3.88;2.80;;;25.00;97.80;;;;;;6141369;28;20066;-67
2022/06/17 16:52:15;;;;;;;3.90;2.95;;;25.10;97.80;;;;;;6128527;29;20059;-68
2022/06/17 16:55:21;;;;;;;6.00;3.00;;;25.00;97.80;;;;;;6128482;29;20062;-68
2022/06/17 16:58:23;;;;;;;5.93;2.53;;;25.00;97.90;;;;;;6128256;29;20047;-68
2022/06/17 17:01:27;;;;;;;3.65;2.40;;;25.00;98.00;;;;;;6143172;29;20055;-68
2022/06/17 17:04:30;;;;;;;2.83;2.47;;;25.00;97.90;;;;;;6143180;28;20095;-68
2022/06/17 17:07:32;;;;;;;5.60;2.80;;;25.10;98.00;;;;;;6128294;29;20044;-68
2022/06/17 17:10:36;;;;;;;4.30;2.67;;;25.20;98.10;;;;;;6127837;29;20398;-67
2022/06/17 17:13:38;;;;;;;4.80;2.83;;;25.10;97.90;;;;;;6127896;29;20090;-67
2022/06/17 17:16:41;;;;;;;3.40;2.30;;;25.00;97.80;;;;;;6127544;29;20054;-67
2022/06/17 17:19:45;;;;;;;4.05;2.22;;;25.00;97.80;;;;;;6129442;29;20052;-67
2022/06/17 17:22:50;;;;;;;3.85;2.33;;;24.90;97.90;;;;;;6126626;29;20055;-68
2022/06/17 17:25:54;;;;;;;4.20;2.42;;;24.90;97.90;;;;;;6127375;29;20097;-67
2022/06/17 17:28:56;;;;;;;;;;;24.80;97.90;;;;;;6128199;29;20509;-67
2022/06/17 17:31:58;;;;;;;2.95;2.40;;;24.80;98.00;;;;;;6127480;29;19929;-68